sensor_id;sensor_type;location;lat;lon;timestamp;pressure;altitude;pressure_sealevel;temperature
73734;BMP280;62039;50.000;9.064;2023-02-04T00:01:51;101620.78;;;6.53
73734;BMP280;62039;50.000;9.064;2023-02-04T00:04:18;101625.88;;;6.54
73734;BMP280;62039;50.000;9.064;2023-02-04T00:06:44;101632.84;;;6.54
73734;BMP280;62039;50.000;9.064;2023-02-04T00:09:11;101629.41;;;6.53
73734;BMP280;62039;50.000;9.064;2023-02-04T00:11:39;101625.97;;;6.53
73734;BMP280;62039;50.000;9.064;2023-02-04T00:14:05;101628.66;;;6.51
73734;BMP280;62039;50.000;9.064;2023-02-04T00:16:32;101623.66;;;6.48
73734;BMP280;62039;50.000;9.064;2023-02-04T00:18:58;101626.38;;;6.47
73734;BMP280;62039;50.000;9.064;2023-02-04T00:21:25;101621.19;;;6.47
73734;BMP280;62039;50.000;9.064;2023-02-04T00:23:51;101635.94;;;6.46
73734;BMP280;62039;50.000;9.064;2023-02-04T00:26:18;101635.19;;;6.44
73734;BMP280;62039;50.000;9.064;2023-02-04T00:28:46;101637.88;;;6.43
73734;BMP280;62039;50.000;9.064;2023-02-04T00:31:12;101643.16;;;6.41
73734;BMP280;62039;50.000;9.064;2023-02-04T00:33:39;101644.97;;;6.41
73734;BMP280;62039;50.000;9.064;2023-02-04T00:36:06;101649.41;;;6.39
73734;BMP280;62039;50.000;9.064;2023-02-04T00:38:32;101651.25;;;6.37
73734;BMP280;62039;50.000;9.064;2023-02-04T00:40:59;101635.03;;;6.33
73734;BMP280;62039;50.000;9.064;2023-02-04T00:43:25;101655.81;;;6.33
73734;BMP280;62039;50.000;9.064;2023-02-04T00:45:53;101651.44;;;6.34
73734;BMP280;62039;50.000;9.064;2023-02-04T00:48:20;101644.59;;;6.33
73734;BMP280;62039;50.000;9.064;2023-02-04T00:50:46;101653.22;;;6.33
73734;BMP280;62039;50.000;9.064;2023-02-04T00:53:13;101654.16;;;6.32
73734;BMP280;62039;50.000;9.064;2023-02-04T00:55:39;101649.13;;;6.29
73734;BMP280;62039;50.000;9.064;2023-02-04T00:58:06;101653.50;;;6.28
73734;BMP280;62039;50.000;9.064;2023-02-04T01:00:32;101653.63;;;6.27
73734;BMP280;62039;50.000;9.064;2023-02-04T01:03:00;101654.53;;;6.26
73734;BMP280;62039;50.000;9.064;2023-02-04T01:05:27;101661.41;;;6.27
73734;BMP280;62039;50.000;9.064;2023-02-04T01:07:54;101658.81;;;6.27
73734;BMP280;62039;50.000;9.064;2023-02-04T01:10:20;101653.63;;;6.27
73734;BMP280;62039;50.000;9.064;2023-02-04T01:12:47;101658.06;;;6.25
73734;BMP280;62039;50.000;9.064;2023-02-04T01:15:14;101656.41;;;6.24
73734;BMP280;62039;50.000;9.064;2023-02-04T01:17:40;101667.00;;;6.21
73734;BMP280;62039;50.000;9.064;2023-02-04T01:20:09;101662.00;;;6.18
73734;BMP280;62039;50.000;9.064;2023-02-04T01:22:36;101676.81;;;6.16
73734;BMP280;62039;50.000;9.064;2023-02-04T01:25:03;101684.81;;;6.13
73734;BMP280;62039;50.000;9.064;2023-02-04T01:27:30;101690.09;;;6.11
73734;BMP280;62039;50.000;9.064;2023-02-04T01:29:56;101698.72;;;6.12
73734;BMP280;62039;50.000;9.064;2023-02-04T01:32:23;101714.28;;;6.12
73734;BMP280;62039;50.000;9.064;2023-02-04T01:34:49;101707.44;;;6.11
73734;BMP280;62039;50.000;9.064;2023-02-04T01:37:17;101703.06;;;6.11
73734;BMP280;62039;50.000;9.064;2023-02-04T01:39:44;101697.97;;;6.10
73734;BMP280;62039;50.000;9.064;2023-02-04T01:42:10;101700.78;;;6.07
73734;BMP280;62039;50.000;9.064;2023-02-04T01:44:37;101710.31;;;6.06
73734;BMP280;62039;50.000;9.064;2023-02-04T01:47:04;101709.50;;;6.06
73734;BMP280;62039;50.000;9.064;2023-02-04T01:49:31;101724.22;;;6.05
73734;BMP280;62039;50.000;9.064;2023-02-04T01:51:57;101730.25;;;6.06
73734;BMP280;62039;50.000;9.064;2023-02-04T01:54:26;101723.41;;;6.05
73734;BMP280;62039;50.000;9.064;2023-02-04T01:56:53;101733.88;;;6.03
73734;BMP280;62039;50.000;9.064;2023-02-04T01:59:20;101719.34;;;6.01
73734;BMP280;62039;50.000;9.064;2023-02-04T02:01:49;101731.66;;;5.97
73734;BMP280;62039;50.000;9.064;2023-02-04T02:04:17;101722.28;;;5.95
73734;BMP280;62039;50.000;9.064;2023-02-04T02:06:47;101736.22;;;5.94
73734;BMP280;62039;50.000;9.064;2023-02-04T02:09:15;101743.25;;;5.92
73734;BMP280;62039;50.000;9.064;2023-02-04T02:11:43;101742.41;;;5.91
73734;BMP280;62039;50.000;9.064;2023-02-04T02:14:10;101743.25;;;5.92
73734;BMP280;62039;50.000;9.064;2023-02-04T02:16:36;101747.59;;;5.91
73734;BMP280;62039;50.000;9.064;2023-02-04T02:19:04;101745.84;;;5.92
73734;BMP280;62039;50.000;9.064;2023-02-04T02:21:37;101745.94;;;5.90
73734;BMP280;62039;50.000;9.064;2023-02-04T02:24:24;101746.94;;;5.87
73734;BMP280;62039;50.000;9.064;2023-02-04T02:26:51;101752.13;;;5.87
73734;BMP280;62039;50.000;9.064;2023-02-04T02:29:18;101747.78;;;5.88
73734;BMP280;62039;50.000;9.064;2023-02-04T02:31:45;101747.59;;;5.91
73734;BMP280;62039;50.000;9.064;2023-02-04T02:34:11;101745.75;;;5.93
73734;BMP280;62039;50.000;9.064;2023-02-04T02:36:38;101752.50;;;5.96
73734;BMP280;62039;50.000;9.064;2023-02-04T02:39:05;101749.72;;;5.99
73734;BMP280;62039;50.000;9.064;2023-02-04T02:41:33;101758.25;;;6.01
73734;BMP280;62039;50.000;9.064;2023-02-04T02:44:00;101758.25;;;6.01
73734;BMP280;62039;50.000;9.064;2023-02-04T02:46:27;101760.00;;;6.00
73734;BMP280;62039;50.000;9.064;2023-02-04T02:48:53;101757.41;;;6.00
73734;BMP280;62039;50.000;9.064;2023-02-04T02:51:20;101755.75;;;5.99
73734;BMP280;62039;50.000;9.064;2023-02-04T02:53:48;101762.78;;;5.97
73734;BMP280;62039;50.000;9.064;2023-02-04T02:56:16;101774.19;;;5.95
73734;BMP280;62039;50.000;9.064;2023-02-04T02:58:44;101767.63;;;5.89
73734;BMP280;62039;50.000;9.064;2023-02-04T03:01:11;101772.25;;;5.84
73734;BMP280;62039;50.000;9.064;2023-02-04T03:03:41;101775.16;;;5.79
73734;BMP280;62039;50.000;9.064;2023-02-04T03:06:11;101774.47;;;5.76
73734;BMP280;62039;50.000;9.064;2023-02-04T03:08:39;101784.94;;;5.74
73734;BMP280;62039;50.000;9.064;2023-02-04T03:11:06;101779.03;;;5.72
73734;BMP280;62039;50.000;9.064;2023-02-04T03:13:33;101795.44;;;5.73
73734;BMP280;62039;50.000;9.064;2023-02-04T03:16:01;101796.44;;;5.70
73734;BMP280;62039;50.000;9.064;2023-02-04T03:18:28;101791.25;;;5.70
73734;BMP280;62039;50.000;9.064;2023-02-04T03:20:55;101801.81;;;5.67
73734;BMP280;62039;50.000;9.064;2023-02-04T03:23:23;101802.75;;;5.66
73734;BMP280;62039;50.000;9.064;2023-02-04T03:25:50;101813.84;;;5.68
73734;BMP280;62039;50.000;9.064;2023-02-04T03:28:17;101817.19;;;5.70
73734;BMP280;62039;50.000;9.064;2023-02-04T03:30:44;101820.53;;;5.72
73734;BMP280;62039;50.000;9.064;2023-02-04T03:33:12;101822.00;;;5.76
73734;BMP280;62039;50.000;9.064;2023-02-04T03:35:38;101829.63;;;5.79
73734;BMP280;62039;50.000;9.064;2023-02-04T03:38:05;101831.28;;;5.80
73734;BMP280;62039;50.000;9.064;2023-02-04T03:40:31;101825.13;;;5.81
73734;BMP280;62039;50.000;9.064;2023-02-04T03:42:58;101836.47;;;5.80
73734;BMP280;62039;50.000;9.064;2023-02-04T03:45:25;101836.66;;;5.77
73734;BMP280;62039;50.000;9.064;2023-02-04T03:47:57;101848.13;;;5.73
73734;BMP280;62039;50.000;9.064;2023-02-04T03:50:25;101850.91;;;5.70
73734;BMP280;62039;50.000;9.064;2023-02-04T03:52:52;101861.34;;;5.69
73734;BMP280;62039;50.000;9.064;2023-02-04T03:55:18;101866.63;;;5.67
73734;BMP280;62039;50.000;9.064;2023-02-04T03:57:45;101875.38;;;5.66
73734;BMP280;62039;50.000;9.064;2023-02-04T04:00:12;101878.88;;;5.65
73734;BMP280;62039;50.000;9.064;2023-02-04T04:02:40;101877.19;;;5.64
73734;BMP280;62039;50.000;9.064;2023-02-04T04:05:07;101866.06;;;5.62
73734;BMP280;62039;50.000;9.064;2023-02-04T04:07:35;101861.09;;;5.59
73734;BMP280;62039;50.000;9.064;2023-02-04T04:10:02;101866.44;;;5.56
73734;BMP280;62039;50.000;9.064;2023-02-04T04:12:29;101859.78;;;5.52
73734;BMP280;62039;50.000;9.064;2023-02-04T04:14:56;101868.66;;;5.48
73734;BMP280;62039;50.000;9.064;2023-02-04T04:17:22;101858.47;;;5.45
73734;BMP280;62039;50.000;9.064;2023-02-04T04:19:49;101861.22;;;5.42
73734;BMP280;62039;50.000;9.064;2023-02-04T04:22:15;101855.22;;;5.41
73734;BMP280;62039;50.000;9.064;2023-02-04T04:24:43;101863.09;;;5.40
73734;BMP280;62039;50.000;9.064;2023-02-04T04:27:10;101859.75;;;5.38
73734;BMP280;62039;50.000;9.064;2023-02-04T04:29:36;101864.09;;;5.37
73734;BMP280;62039;50.000;9.064;2023-02-04T04:32:03;101872.72;;;5.38
73734;BMP280;62039;50.000;9.064;2023-02-04T04:34:29;101870.88;;;5.40
73734;BMP280;62039;50.000;9.064;2023-02-04T04:36:56;101885.31;;;5.44
73734;BMP280;62039;50.000;9.064;2023-02-04T04:39:23;101886.97;;;5.45
73734;BMP280;62039;50.000;9.064;2023-02-04T04:41:50;101884.19;;;5.48
73734;BMP280;62039;50.000;9.064;2023-02-04T04:44:17;101883.13;;;5.52
73734;BMP280;62039;50.000;9.064;2023-02-04T04:46:43;101893.28;;;5.55
73734;BMP280;62039;50.000;9.064;2023-02-04T04:49:10;101898.41;;;5.57
73734;BMP280;62039;50.000;9.064;2023-02-04T04:51:36;101902.56;;;5.59
73734;BMP280;62039;50.000;9.064;2023-02-04T04:54:03;101897.19;;;5.62
73734;BMP280;62039;50.000;9.064;2023-02-04T04:56:30;101900.53;;;5.64
73734;BMP280;62039;50.000;9.064;2023-02-04T04:58:57;101901.28;;;5.66
73734;BMP280;62039;50.000;9.064;2023-02-04T05:01:24;101898.69;;;5.66
73734;BMP280;62039;50.000;9.064;2023-02-04T05:03:50;101904.72;;;5.67
73734;BMP280;62039;50.000;9.064;2023-02-04T05:06:17;101907.31;;;5.67
73734;BMP280;62039;50.000;9.064;2023-02-04T05:08:44;101913.31;;;5.67
73734;BMP280;62039;50.000;9.064;2023-02-04T05:11:10;101923.69;;;5.67
73734;BMP280;62039;50.000;9.064;2023-02-04T05:13:37;101917.69;;;5.67
73734;BMP280;62039;50.000;9.064;2023-02-04T05:16:05;101928.16;;;5.65
73734;BMP280;62039;50.000;9.064;2023-02-04T05:18:32;101936.84;;;5.64
73734;BMP280;62039;50.000;9.064;2023-02-04T05:20:58;101936.94;;;5.63
73734;BMP280;62039;50.000;9.064;2023-02-04T05:23:25;101942.13;;;5.63
73734;BMP280;62039;50.000;9.064;2023-02-04T05:25:51;101942.19;;;5.61
73734;BMP280;62039;50.000;9.064;2023-02-04T05:28:18;101937.13;;;5.60
73734;BMP280;62039;50.000;9.064;2023-02-04T05:30:44;101936.38;;;5.58
73734;BMP280;62039;50.000;9.064;2023-02-04T05:33:12;101933.78;;;5.58
73734;BMP280;62039;50.000;9.064;2023-02-04T05:35:39;101932.94;;;5.57
73734;BMP280;62039;50.000;9.064;2023-02-04T05:38:05;101932.19;;;5.55
73734;BMP280;62039;50.000;9.064;2023-02-04T05:40:32;101936.53;;;5.55
73734;BMP280;62039;50.000;9.064;2023-02-04T05:42:59;101944.41;;;5.53
73734;BMP280;62039;50.000;9.064;2023-02-04T05:45:25;101946.25;;;5.51
73734;BMP280;62039;50.000;9.064;2023-02-04T05:47:52;101945.41;;;5.51
73734;BMP280;62039;50.000;9.064;2023-02-04T05:50:20;101944.75;;;5.47
73734;BMP280;62039;50.000;9.064;2023-02-04T05:52:46;101949.19;;;5.45
73734;BMP280;62039;50.000;9.064;2023-02-04T05:55:13;101951.88;;;5.43
73734;BMP280;62039;50.000;9.064;2023-02-04T05:57:39;101951.13;;;5.41
73734;BMP280;62039;50.000;9.064;2023-02-04T06:00:07;101953.81;;;5.40
73734;BMP280;62039;50.000;9.064;2023-02-04T06:02:33;101948.81;;;5.37
73734;BMP280;62039;50.000;9.064;2023-02-04T06:05:00;101940.25;;;5.35
73734;BMP280;62039;50.000;9.064;2023-02-04T06:07:28;101941.19;;;5.34
73734;BMP280;62039;50.000;9.064;2023-02-04T06:09:54;101958.59;;;5.32
73734;BMP280;62039;50.000;9.064;2023-02-04T06:12:21;101968.22;;;5.30
73734;BMP280;62039;50.000;9.064;2023-02-04T06:14:47;101956.16;;;5.29
73734;BMP280;62039;50.000;9.064;2023-02-04T06:17:14;101962.38;;;5.26
73734;BMP280;62039;50.000;9.064;2023-02-04T06:19:40;101962.44;;;5.25
73734;BMP280;62039;50.000;9.064;2023-02-04T06:22:07;101958.25;;;5.22
73734;BMP280;62039;50.000;9.064;2023-02-04T06:24:35;101955.75;;;5.21
73734;BMP280;62039;50.000;9.064;2023-02-04T06:27:01;101961.03;;;5.19
73734;BMP280;62039;50.000;9.064;2023-02-04T06:29:28;101960.28;;;5.17
73734;BMP280;62039;50.000;9.064;2023-02-04T06:31:54;101965.56;;;5.16
73734;BMP280;62039;50.000;9.064;2023-02-04T06:34:21;101976.81;;;5.15
73734;BMP280;62039;50.000;9.064;2023-02-04T06:36:48;101981.28;;;5.13
73734;BMP280;62039;50.000;9.064;2023-02-04T06:39:14;101988.25;;;5.10
73734;BMP280;62039;50.000;9.064;2023-02-04T06:41:42;101983.09;;;5.10
73734;BMP280;62039;50.000;9.064;2023-02-04T06:44:08;101984.91;;;5.08
73734;BMP280;62039;50.000;9.064;2023-02-04T06:46:35;101988.41;;;5.07
73734;BMP280;62039;50.000;9.064;2023-02-04T06:49:01;101991.91;;;5.06
73734;BMP280;62039;50.000;9.064;2023-02-04T06:51:28;101997.28;;;5.03
73734;BMP280;62039;50.000;9.064;2023-02-04T06:53:54;101993.03;;;5.02
73734;BMP280;62039;50.000;9.064;2023-02-04T06:56:21;101992.19;;;5.02
73734;BMP280;62039;50.000;9.064;2023-02-04T06:58:49;101997.44;;;5.00
73734;BMP280;62039;50.000;9.064;2023-02-04T07:01:15;102003.56;;;4.99
73734;BMP280;62039;50.000;9.064;2023-02-04T07:03:42;102013.16;;;4.97
73734;BMP280;62039;50.000;9.064;2023-02-04T07:06:08;102017.50;;;4.97
73734;BMP280;62039;50.000;9.064;2023-02-04T07:08:35;102015.00;;;4.95
73734;BMP280;62039;50.000;9.064;2023-02-04T07:11:01;102024.59;;;4.93
73734;BMP280;62039;50.000;9.064;2023-02-04T07:13:28;102022.94;;;4.92
73734;BMP280;62039;50.000;9.064;2023-02-04T07:15:56;102027.38;;;4.90
73734;BMP280;62039;50.000;9.064;2023-02-04T07:18:23;102024.84;;;4.89
73734;BMP280;62039;50.000;9.064;2023-02-04T07:20:49;102039.56;;;4.88
73734;BMP280;62039;50.000;9.064;2023-02-04T07:23:16;102038.72;;;4.88
73734;BMP280;62039;50.000;9.064;2023-02-04T07:25:42;102043.16;;;4.86
73734;BMP280;62039;50.000;9.064;2023-02-04T07:28:09;102051.00;;;4.84
73734;BMP280;62039;50.000;9.064;2023-02-04T07:30:35;102058.94;;;4.81
73734;BMP280;62039;50.000;9.064;2023-02-04T07:33:03;102068.56;;;4.79
73734;BMP280;62039;50.000;9.064;2023-02-04T07:35:30;102070.44;;;4.76
73734;BMP280;62039;50.000;9.064;2023-02-04T07:37:56;102076.53;;;4.75
73734;BMP280;62039;50.000;9.064;2023-02-04T07:40:23;102077.44;;;4.74
73734;BMP280;62039;50.000;9.064;2023-02-04T07:42:49;102087.81;;;4.74
73734;BMP280;62039;50.000;9.064;2023-02-04T07:45:16;102096.53;;;4.73
73734;BMP280;62039;50.000;9.064;2023-02-04T07:47:42;102106.88;;;4.73
73734;BMP280;62039;50.000;9.064;2023-02-04T07:50:11;102106.78;;;4.74
73734;BMP280;62039;50.000;9.064;2023-02-04T07:52:37;102111.22;;;4.72
73734;BMP280;62039;50.000;9.064;2023-02-04T07:55:04;102116.41;;;4.72
73734;BMP280;62039;50.000;9.064;2023-02-04T07:57:31;102114.72;;;4.71
73734;BMP280;62039;50.000;9.064;2023-02-04T07:59:58;102126.75;;;4.72
73734;BMP280;62039;50.000;9.064;2023-02-04T08:02:24;102127.66;;;4.71
73734;BMP280;62039;50.000;9.064;2023-02-04T08:04:51;102131.94;;;4.72
73734;BMP280;62039;50.000;9.064;2023-02-04T08:07:19;102125.06;;;4.71
73734;BMP280;62039;50.000;9.064;2023-02-04T08:09:45;102131.94;;;4.72
73734;BMP280;62039;50.000;9.064;2023-02-04T08:12:12;102142.28;;;4.72
73734;BMP280;62039;50.000;9.064;2023-02-04T08:14:38;102134.59;;;4.70
73734;BMP280;62039;50.000;9.064;2023-02-04T08:17:05;102142.28;;;4.72
73734;BMP280;62039;50.000;9.064;2023-02-04T08:19:31;102149.97;;;4.74
73734;BMP280;62039;50.000;9.064;2023-02-04T08:21:58;102150.81;;;4.74
73734;BMP280;62039;50.000;9.064;2023-02-04T08:24:26;102150.81;;;4.74
73734;BMP280;62039;50.000;9.064;2023-02-04T08:26:52;102155.16;;;4.74
73734;BMP280;62039;50.000;9.064;2023-02-04T08:29:19;102157.66;;;4.75
73734;BMP280;62039;50.000;9.064;2023-02-04T08:31:45;102159.34;;;4.76
73734;BMP280;62039;50.000;9.064;2023-02-04T08:34:12;102162.69;;;4.78
73734;BMP280;62039;50.000;9.064;2023-02-04T08:36:38;102169.38;;;4.82
73734;BMP280;62039;50.000;9.064;2023-02-04T08:39:05;102175.34;;;4.84
73734;BMP280;62039;50.000;9.064;2023-02-04T08:41:33;102180.34;;;4.87
73734;BMP280;62039;50.000;9.064;2023-02-04T08:43:59;102178.44;;;4.91
73734;BMP280;62039;50.000;9.064;2023-02-04T08:46:26;102185.22;;;4.93
73734;BMP280;62039;50.000;9.064;2023-02-04T08:48:53;102189.34;;;4.97
73734;BMP280;62039;50.000;9.064;2023-02-04T08:51:19;102200.34;;;5.01
73734;BMP280;62039;50.000;9.064;2023-02-04T08:53:46;102194.19;;;5.03
73734;BMP280;62039;50.000;9.064;2023-02-04T08:56:13;102197.56;;;5.05
73734;BMP280;62039;50.000;9.064;2023-02-04T08:58:41;102194.84;;;5.07
73734;BMP280;62039;50.000;9.064;2023-02-04T09:01:07;102211.09;;;5.10
73734;BMP280;62039;50.000;9.064;2023-02-04T09:03:34;102210.16;;;5.13
73734;BMP280;62039;50.000;9.064;2023-02-04T09:06:00;102216.00;;;5.17
73734;BMP280;62039;50.000;9.064;2023-02-04T09:08:27;102218.44;;;5.20
73734;BMP280;62039;50.000;9.064;2023-02-04T09:10:53;102219.88;;;5.25
73734;BMP280;62039;50.000;9.064;2023-02-04T09:13:20;102212.75;;;5.29
73734;BMP280;62039;50.000;9.064;2023-02-04T09:15:48;102216.78;;;5.34
73734;BMP280;62039;50.000;9.064;2023-02-04T09:18:14;102221.66;;;5.40
73734;BMP280;62039;50.000;9.064;2023-02-04T09:20:41;102217.06;;;5.45
73734;BMP280;62039;50.000;9.064;2023-02-04T09:23:08;102212.41;;;5.52
73734;BMP280;62039;50.000;9.064;2023-02-04T09:25:35;102217.25;;;5.58
73734;BMP280;62039;50.000;9.064;2023-02-04T09:28:01;102214.47;;;5.61
73734;BMP280;62039;50.000;9.064;2023-02-04T09:30:28;102222.09;;;5.64
73734;BMP280;62039;50.000;9.064;2023-02-04T09:32:56;102222.69;;;5.69
73734;BMP280;62039;50.000;9.064;2023-02-04T09:35:22;102221.53;;;5.75
73734;BMP280;62039;50.000;9.064;2023-02-04T09:37:49;102232.50;;;5.80
73734;BMP280;62039;50.000;9.064;2023-02-04T09:40:16;102236.53;;;5.85
73734;BMP280;62039;50.000;9.064;2023-02-04T09:42:44;102243.06;;;5.93
73734;BMP280;62039;50.000;9.064;2023-02-04T09:45:14;102228.06;;;5.98
73734;BMP280;62039;50.000;9.064;2023-02-04T09:47:42;102240.69;;;6.04
73734;BMP280;62039;50.000;9.064;2023-02-04T09:50:13;102237.69;;;6.11
73734;BMP280;62039;50.000;9.064;2023-02-04T09:52:40;102240.00;;;6.16
73734;BMP280;62039;50.000;9.064;2023-02-04T09:55:11;102242.25;;;6.22
73734;BMP280;62039;50.000;9.064;2023-02-04T09:57:38;102247.03;;;6.29
73734;BMP280;62039;50.000;9.064;2023-02-04T10:00:05;102253.56;;;6.37
73734;BMP280;62039;50.000;9.064;2023-02-04T10:02:36;102247.22;;;6.42
73734;BMP280;62039;50.000;9.064;2023-02-04T10:05:02;102250.41;;;6.47
73734;BMP280;62039;50.000;9.064;2023-02-04T10:07:30;102255.25;;;6.53
73734;BMP280;62039;50.000;9.064;2023-02-04T10:09:58;102258.41;;;6.58
73734;BMP280;62039;50.000;9.064;2023-02-04T10:12:24;102252.03;;;6.64
73734;BMP280;62039;50.000;9.064;2023-02-04T10:14:51;102253.44;;;6.70
73734;BMP280;62039;50.000;9.064;2023-02-04T10:17:20;102254.81;;;6.75
73734;BMP280;62039;50.000;9.064;2023-02-04T10:19:47;102246.78;;;6.80
73734;BMP280;62039;50.000;9.064;2023-02-04T10:22:19;102258.59;;;6.85
73734;BMP280;62039;50.000;9.064;2023-02-04T10:24:47;102256.63;;;6.89
73734;BMP280;62039;50.000;9.064;2023-02-04T10:27:14;102264.25;;;6.92
73734;BMP280;62039;50.000;9.064;2023-02-04T10:29:41;102268.34;;;6.96
73734;BMP280;62039;50.000;9.064;2023-02-04T10:32:27;102262.97;;;6.99
73734;BMP280;62039;50.000;9.064;2023-02-04T10:34:58;102263.53;;;7.04
73734;BMP280;62039;50.000;9.064;2023-02-04T10:37:26;102266.69;;;7.09
73734;BMP280;62039;50.000;9.064;2023-02-04T10:39:54;102271.56;;;7.15
73734;BMP280;62039;50.000;9.064;2023-02-04T10:42:23;102271.19;;;7.21
73734;BMP280;62039;50.000;9.064;2023-02-04T10:44:50;102272.66;;;7.25
73734;BMP280;62039;50.000;9.064;2023-02-04T10:47:18;102272.38;;;7.30
73734;BMP280;62039;50.000;9.064;2023-02-04T10:49:53;102273.81;;;7.35
73734;BMP280;62039;50.000;9.064;2023-02-04T10:52:21;102279.56;;;7.40
73734;BMP280;62039;50.000;9.064;2023-02-04T10:54:49;102280.03;;;7.47
73734;BMP280;62039;50.000;9.064;2023-02-04T10:57:20;102267.56;;;7.52
73734;BMP280;62039;50.000;9.064;2023-02-04T10:59:49;102272.44;;;7.58
73734;BMP280;62039;50.000;9.064;2023-02-04T11:02:36;102266.22;;;7.61
73734;BMP280;62039;50.000;9.064;2023-02-04T11:05:12;102269.44;;;7.64
73734;BMP280;62039;50.000;9.064;2023-02-04T11:07:39;102272.72;;;7.68
73734;BMP280;62039;50.000;9.064;2023-02-04T11:10:11;102268.97;;;7.72
73734;BMP280;62039;50.000;9.064;2023-02-04T11:12:41;102270.66;;;7.73
73734;BMP280;62039;50.000;9.064;2023-02-04T11:15:35;102272.31;;;7.74
73734;BMP280;62039;50.000;9.064;2023-02-04T11:18:03;102274.84;;;7.75
73734;BMP280;62039;50.000;9.064;2023-02-04T11:20:32;102267.75;;;7.77
73734;BMP280;62039;50.000;9.064;2023-02-04T11:23:27;102279.84;;;7.78
73734;BMP280;62039;50.000;9.064;2023-02-04T11:26:07;102273.63;;;7.81
73734;BMP280;62039;50.000;9.064;2023-02-04T11:28:45;102270.09;;;7.82
73734;BMP280;62039;50.000;9.064;2023-02-04T11:31:14;102269.97;;;7.83
73734;BMP280;62039;50.000;9.064;2023-02-04T11:34:02;102275.94;;;7.85
73734;BMP280;62039;50.000;9.064;2023-02-04T11:36:32;102278.44;;;7.87
73734;BMP280;62039;50.000;9.064;2023-02-04T11:39:06;102286.03;;;7.90
73734;BMP280;62039;50.000;9.064;2023-02-04T11:41:33;102280.84;;;7.90
73734;BMP280;62039;50.000;9.064;2023-02-04T11:44:01;102276.38;;;7.92
73734;BMP280;62039;50.000;9.064;2023-02-04T11:46:28;102270.25;;;7.93
73734;BMP280;62039;50.000;9.064;2023-02-04T11:48:57;102274.53;;;7.94
73734;BMP280;62039;50.000;9.064;2023-02-04T11:51:28;102285.66;;;7.96
73734;BMP280;62039;50.000;9.064;2023-02-04T11:53:55;102289.09;;;7.97
73734;BMP280;62039;50.000;9.064;2023-02-04T11:56:22;102291.63;;;7.98
73734;BMP280;62039;50.000;9.064;2023-02-04T11:58:55;102285.47;;;7.99
73734;BMP280;62039;50.000;9.064;2023-02-04T12:01:29;102287.91;;;8.02
73734;BMP280;62039;50.000;9.064;2023-02-04T12:03:58;102282.50;;;8.05
73734;BMP280;62039;50.000;9.064;2023-02-04T12:06:27;102284.16;;;8.06
73734;BMP280;62039;50.000;9.064;2023-02-04T12:09:03;102284.16;;;8.06
73734;BMP280;62039;50.000;9.064;2023-02-04T12:11:30;102288.22;;;8.10
73734;BMP280;62039;50.000;9.064;2023-02-04T12:13:58;102287.13;;;8.14
73734;BMP280;62039;50.000;9.064;2023-02-04T12:16:26;102291.19;;;8.18
73734;BMP280;62039;50.000;9.064;2023-02-04T12:18:53;102279.75;;;8.21
73734;BMP280;62039;50.000;9.064;2023-02-04T12:21:19;102277.59;;;8.28
73734;BMP280;62039;50.000;9.064;2023-02-04T12:23:46;102283.16;;;8.36
73734;BMP280;62039;50.000;9.064;2023-02-04T12:26:12;102280.88;;;8.44
73734;BMP280;62039;50.000;9.064;2023-02-04T12:28:40;102280.28;;;8.53
73734;BMP280;62039;50.000;9.064;2023-02-04T12:31:06;102285.03;;;8.60
73734;BMP280;62039;50.000;9.064;2023-02-04T12:33:35;102287.16;;;8.68
73734;BMP280;62039;50.000;9.064;2023-02-04T12:36:01;102286.75;;;8.74
73734;BMP280;62039;50.000;9.064;2023-02-04T12:38:28;102289.88;;;8.79
73734;BMP280;62039;50.000;9.064;2023-02-04T12:40:54;102283.53;;;8.83
73734;BMP280;62039;50.000;9.064;2023-02-04T12:43:21;102271.97;;;8.87
73734;BMP280;62039;50.000;9.064;2023-02-04T12:45:47;102275.19;;;8.91
73734;BMP280;62039;50.000;9.064;2023-02-04T12:48:14;102271.44;;;8.95
73734;BMP280;62039;50.000;9.064;2023-02-04T12:50:42;102276.34;;;8.99
73734;BMP280;62039;50.000;9.064;2023-02-04T12:53:08;102273.66;;;9.01
73734;BMP280;62039;50.000;9.064;2023-02-04T12:55:35;102284.06;;;9.01
73734;BMP280;62039;50.000;9.064;2023-02-04T12:58:02;102278.97;;;8.99
73734;BMP280;62039;50.000;9.064;2023-02-04T13:00:28;102287.19;;;8.93
73734;BMP280;62039;50.000;9.064;2023-02-04T13:02:55;102295.19;;;8.90
73734;BMP280;62039;50.000;9.064;2023-02-04T13:05:22;102301.56;;;8.86
73734;BMP280;62039;50.000;9.064;2023-02-04T13:07:50;102299.91;;;8.85
73734;BMP280;62039;50.000;9.064;2023-02-04T13:10:16;102296.56;;;8.83
73734;BMP280;62039;50.000;9.064;2023-02-04T13:12:43;102301.88;;;8.82
73734;BMP280;62039;50.000;9.064;2023-02-04T13:15:09;102308.88;;;8.81
73734;BMP280;62039;50.000;9.064;2023-02-04T13:17:36;102298.44;;;8.81
73734;BMP280;62039;50.000;9.064;2023-02-04T13:20:03;102299.28;;;8.82
73734;BMP280;62039;50.000;9.064;2023-02-04T13:22:30;102296.56;;;8.83
73734;BMP280;62039;50.000;9.064;2023-02-04T13:24:58;102293.97;;;8.83
73734;BMP280;62039;50.000;9.064;2023-02-04T13:27:25;102294.91;;;8.82
73734;BMP280;62039;50.000;9.064;2023-02-04T13:29:51;102293.22;;;8.81
73734;BMP280;62039;50.000;9.064;2023-02-04T13:32:18;102290.63;;;8.81
73734;BMP280;62039;50.000;9.064;2023-02-04T13:34:44;102286.25;;;8.82
73734;BMP280;62039;50.000;9.064;2023-02-04T13:37:11;102278.19;;;8.85
73734;BMP280;62039;50.000;9.064;2023-02-04T13:39:37;102280.22;;;8.94
73734;BMP280;62039;50.000;9.064;2023-02-04T13:42:05;102283.03;;;9.03
73734;BMP280;62039;50.000;9.064;2023-02-04T13:44:32;102271.97;;;9.13
73734;BMP280;62039;50.000;9.064;2023-02-04T13:46:58;102265.22;;;9.23
73734;BMP280;62039;50.000;9.064;2023-02-04T13:49:25;102276.56;;;9.34
73734;BMP280;62039;50.000;9.064;2023-02-04T13:51:51;102281.69;;;9.49
73734;BMP280;62039;50.000;9.064;2023-02-04T13:54:18;102278.88;;;9.64
73734;BMP280;62039;50.000;9.064;2023-02-04T13:56:44;102280.41;;;9.79
73734;BMP280;62039;50.000;9.064;2023-02-04T13:59:12;102280.91;;;9.97
73734;BMP280;62039;50.000;9.064;2023-02-04T14:01:39;102285.00;;;10.12
73734;BMP280;62039;50.000;9.064;2023-02-04T14:04:05;102286.41;;;10.29
73734;BMP280;62039;50.000;9.064;2023-02-04T14:06:32;102280.06;;;10.44
73734;BMP280;62039;50.000;9.064;2023-02-04T14:08:59;102293.81;;;10.59
73734;BMP280;62039;50.000;9.064;2023-02-04T14:11:26;102291.34;;;10.69